createdAt,value
2018-12-11T00:00:56.286Z,1003.24
2018-12-11T00:01:56.308Z,1003.28
2018-12-11T00:02:56.326Z,1003.28
2018-12-11T00:03:56.346Z,1003.28
2018-12-11T00:04:56.371Z,1003.34
2018-12-11T00:05:56.390Z,1003.35
2018-12-11T00:06:56.409Z,1003.37
2018-12-11T00:07:56.431Z,1003.39
2018-12-11T00:08:56.446Z,1003.37
2018-12-11T00:09:56.471Z,1003.41
2018-12-11T00:10:56.488Z,1003.45
2018-12-11T00:11:56.508Z,1003.44
2018-12-11T00:12:56.531Z,1003.49
2018-12-11T00:13:56.546Z,1003.45
2018-12-11T00:14:56.570Z,1003.46
2018-12-11T00:15:56.590Z,1003.45
2018-12-11T00:16:56.615Z,1003.50
2018-12-11T00:17:56.626Z,1003.50
2018-12-11T00:18:56.646Z,1003.53
2018-12-11T00:19:56.668Z,1003.57
2018-12-11T00:20:56.686Z,1003.60
2018-12-11T00:21:56.707Z,1003.63
2018-12-11T00:22:56.728Z,1003.61
2018-12-11T00:23:56.750Z,1003.64
2018-12-11T00:24:56.767Z,1003.62
2018-12-11T00:25:56.787Z,1003.61
2018-12-11T00:26:56.815Z,1003.62
2018-12-11T00:27:56.830Z,1003.60
2018-12-11T00:28:56.846Z,1003.66
2018-12-11T00:29:56.866Z,1003.68
2018-12-11T00:30:56.890Z,1003.68
2018-12-11T00:31:56.906Z,1003.68
2018-12-11T00:32:56.925Z,1003.76
2018-12-11T00:33:56.946Z,1003.73
2018-12-11T00:34:56.965Z,1003.73
2018-12-11T00:35:56.989Z,1003.78
2018-12-11T00:36:57.008Z,1003.76
2018-12-11T00:37:57.025Z,1003.81
2018-12-11T00:38:57.045Z,1003.77
2018-12-11T00:39:57.067Z,1003.80
2018-12-11T00:40:57.088Z,1003.84
2018-12-11T00:41:57.107Z,1003.86
2018-12-11T00:42:57.125Z,1003.86
2018-12-11T00:43:57.147Z,1003.86
2018-12-11T00:44:57.165Z,1003.88
2018-12-11T00:45:57.186Z,1003.87
2018-12-11T00:46:57.205Z,1003.92
2018-12-11T00:47:57.229Z,1003.89
2018-12-11T00:48:57.248Z,1003.94
2018-12-11T00:49:57.267Z,1003.93
2018-12-11T00:50:57.288Z,1003.96
2018-12-11T00:51:57.305Z,1003.94
2018-12-11T00:52:57.324Z,1003.93
2018-12-11T00:53:57.345Z,1003.97
2018-12-11T00:54:57.365Z,1003.99
2018-12-11T00:55:57.386Z,1003.96
2018-12-11T00:56:57.403Z,1004.00
2018-12-11T00:57:57.425Z,1004.01
2018-12-11T00:58:57.443Z,1004.04
2018-12-11T00:59:57.464Z,1004.01
2018-12-11T01:00:57.483Z,1004.04
2018-12-11T01:01:57.503Z,1004.06
2018-12-11T01:02:57.521Z,1004.01
2018-12-11T01:03:57.547Z,1004.07
2018-12-11T01:04:57.564Z,1004.06
2018-12-11T01:05:57.582Z,1004.14
2018-12-11T01:06:57.606Z,1004.15
2018-12-11T01:07:57.626Z,1004.11
2018-12-11T01:08:57.641Z,1004.16
2018-12-11T01:09:57.660Z,1004.14
2018-12-11T01:10:57.685Z,1004.18
2018-12-11T01:11:57.703Z,1004.19
2018-12-11T01:12:57.719Z,1004.19
2018-12-11T01:13:57.739Z,1004.21
2018-12-11T01:14:57.760Z,1004.24
2018-12-11T01:15:57.783Z,1004.26
2018-12-11T01:16:57.803Z,1004.31
2018-12-11T01:17:57.821Z,1004.31
2018-12-11T01:18:57.838Z,1004.35
2018-12-11T01:19:57.859Z,1004.29
2018-12-11T01:20:57.877Z,1004.32
2018-12-11T01:21:57.898Z,1004.32
2018-12-11T01:22:57.920Z,1004.35
2018-12-11T01:23:57.936Z,1004.37
2018-12-11T01:24:57.962Z,1004.38
2018-12-11T01:25:57.979Z,1004.37
2018-12-11T01:26:57.997Z,1004.41
2018-12-11T01:27:58.018Z,1004.40
2018-12-11T01:28:58.038Z,1004.42
2018-12-11T01:29:58.054Z,1004.44
2018-12-11T01:30:58.075Z,1004.44
2018-12-11T01:31:58.095Z,1004.46
2018-12-11T01:32:58.116Z,1004.46
2018-12-11T01:33:58.139Z,1004.47
2018-12-11T01:34:58.158Z,1004.49
2018-12-11T01:35:58.173Z,1004.52
2018-12-11T01:36:58.192Z,1004.51
2018-12-11T01:37:58.211Z,1004.54
2018-12-11T01:38:58.235Z,1004.56
2018-12-11T01:39:58.257Z,1004.60
2018-12-11T01:40:58.272Z,1004.60
2018-12-11T01:41:58.291Z,1004.57
2018-12-11T01:42:58.310Z,1004.61
2018-12-11T01:43:58.334Z,1004.67
2018-12-11T01:44:58.350Z,1004.68
2018-12-11T01:45:58.378Z,1004.68
2018-12-11T01:46:58.388Z,1004.66
2018-12-11T01:47:58.415Z,1004.66
2018-12-11T01:48:58.427Z,1004.74
2018-12-11T01:49:58.449Z,1004.72
2018-12-11T01:50:58.467Z,1004.75
2018-12-11T01:51:58.487Z,1004.74
2018-12-11T01:52:58.517Z,1004.74
2018-12-11T01:53:58.527Z,1004.72
2018-12-11T01:54:58.546Z,1004.71
2018-12-11T01:55:58.566Z,1004.71
2018-12-11T01:56:58.587Z,1004.73
2018-12-11T01:57:58.605Z,1004.75
2018-12-11T01:58:58.626Z,1004.78
2018-12-11T01:59:58.644Z,1004.80
2018-12-11T02:00:58.665Z,1004.87
2018-12-11T02:01:58.684Z,1004.82
2018-12-11T02:02:58.703Z,1004.87
2018-12-11T02:03:58.725Z,1004.88
2018-12-11T02:04:58.740Z,1004.92
2018-12-11T02:05:58.761Z,1004.93
2018-12-11T02:06:58.781Z,1004.93
2018-12-11T02:07:58.804Z,1004.96
2018-12-11T02:08:58.928Z,1004.96
2018-12-11T02:09:58.838Z,1004.95
2018-12-11T02:10:58.910Z,1004.97
2018-12-11T02:11:58.879Z,1004.95
2018-12-11T02:12:58.903Z,1005.00
2018-12-11T02:13:58.916Z,1005.00
2018-12-11T02:14:58.935Z,1005.03
2018-12-11T02:15:58.956Z,1005.03
2018-12-11T02:16:58.975Z,1005.04
2018-12-11T02:17:58.994Z,1005.05
2018-12-11T02:18:59.014Z,1005.03
2018-12-11T02:19:59.033Z,1005.01
2018-12-11T02:20:59.051Z,1005.04
2018-12-11T02:21:59.074Z,1005.05
2018-12-11T02:22:59.091Z,1005.04
2018-12-11T02:23:59.117Z,1005.08
2018-12-11T02:24:59.133Z,1005.10
2018-12-11T02:25:59.148Z,1005.10
2018-12-11T02:26:59.170Z,1005.06
2018-12-11T02:27:59.189Z,1005.07
2018-12-11T02:28:59.210Z,1005.05
2018-12-11T02:29:59.228Z,1005.07
2018-12-11T02:30:59.251Z,1005.08
2018-12-11T02:31:59.266Z,1005.11
2018-12-11T02:32:59.286Z,1005.12
2018-12-11T02:33:59.305Z,1005.11
2018-12-11T02:34:59.326Z,1005.14
2018-12-11T02:35:59.346Z,1005.11
2018-12-11T02:36:59.361Z,1005.12
2018-12-11T02:37:59.385Z,1005.16
2018-12-11T02:38:59.402Z,1005.15
2018-12-11T02:39:59.422Z,1005.14
2018-12-11T02:40:59.442Z,1005.12
2018-12-11T02:41:59.462Z,1005.19
2018-12-11T02:42:59.479Z,1005.18
2018-12-11T02:43:59.504Z,1005.17
2018-12-11T02:44:59.520Z,1005.19
2018-12-11T02:45:59.544Z,1005.21
2018-12-11T02:46:59.557Z,1005.24
2018-12-11T02:47:59.576Z,1005.22
2018-12-11T02:48:59.597Z,1005.23
2018-12-11T02:49:59.616Z,1005.23
2018-12-11T02:50:59.635Z,1005.24
2018-12-11T02:51:59.654Z,1005.27
2018-12-11T02:52:59.672Z,1005.29
2018-12-11T02:53:59.695Z,1005.31
2018-12-11T02:54:59.709Z,1005.32
2018-12-11T02:55:59.731Z,1005.37
2018-12-11T02:56:59.753Z,1005.32
2018-12-11T02:57:59.769Z,1005.40
2018-12-11T02:58:59.787Z,1005.42
2018-12-11T02:59:59.809Z,1005.43
2018-12-11T03:00:59.824Z,1005.48
2018-12-11T03:01:59.849Z,1005.47
2018-12-11T03:02:59.866Z,1005.50
2018-12-11T03:03:59.883Z,1005.49
2018-12-11T03:04:59.902Z,1005.51
2018-12-11T03:05:59.921Z,1005.55
2018-12-11T03:06:59.941Z,1005.57
2018-12-11T03:07:59.962Z,1005.55
2018-12-11T03:08:59.978Z,1005.52
2018-12-11T03:09:59.997Z,1005.59
2018-12-11T03:11:00.017Z,1005.56
2018-12-11T03:12:00.038Z,1005.55
2018-12-11T03:13:00.057Z,1005.56
2018-12-11T03:14:00.073Z,1005.59
2018-12-11T03:15:00.093Z,1005.57
2018-12-11T03:16:00.114Z,1005.57
2018-12-11T03:17:00.131Z,1005.61
2018-12-11T03:18:00.158Z,1005.61
2018-12-11T03:19:00.170Z,1005.61
2018-12-11T03:20:00.189Z,1005.65
2018-12-11T03:21:00.208Z,1005.67
2018-12-11T03:22:00.227Z,1005.65
2018-12-11T03:23:00.247Z,1005.69
2018-12-11T03:24:00.265Z,1005.66
2018-12-11T03:25:00.282Z,1005.68
2018-12-11T03:26:00.305Z,1005.67
2018-12-11T03:27:00.323Z,1005.68
2018-12-11T03:28:00.342Z,1005.75
2018-12-11T03:29:00.359Z,1005.73
2018-12-11T03:30:00.387Z,1005.72
2018-12-11T03:31:00.409Z,1005.78
2018-12-11T03:32:00.424Z,1005.77
2018-12-11T03:33:00.436Z,1005.77
2018-12-11T03:34:00.457Z,1005.79
2018-12-11T03:35:00.473Z,1005.82
2018-12-11T03:36:00.498Z,1005.81
2018-12-11T03:37:00.524Z,1005.86
2018-12-11T03:38:00.534Z,1005.85
2018-12-11T03:39:00.552Z,1005.89
2018-12-11T03:40:00.577Z,1005.88
2018-12-11T03:41:00.589Z,1005.95
2018-12-11T03:42:00.608Z,1005.92
2018-12-11T03:43:00.626Z,1005.95
2018-12-11T03:44:00.648Z,1005.97
2018-12-11T03:45:00.668Z,1005.96
2018-12-11T03:46:00.683Z,1005.98
2018-12-11T03:47:00.703Z,1006.00
2018-12-11T03:48:00.726Z,1006.03
2018-12-11T03:49:00.740Z,1006.03
2018-12-11T03:50:00.765Z,1006.07
2018-12-11T03:51:00.778Z,1006.10
2018-12-11T03:52:00.799Z,1006.12
2018-12-11T03:53:00.816Z,1006.13
2018-12-11T03:54:00.833Z,1006.16
2018-12-11T03:55:00.856Z,1006.13
2018-12-11T03:56:00.873Z,1006.16
2018-12-11T03:57:00.902Z,1006.20
2018-12-11T03:58:00.916Z,1006.16
2018-12-11T03:59:00.929Z,1006.17
2018-12-11T04:00:00.948Z,1006.20
2018-12-11T04:01:00.968Z,1006.18
2018-12-11T04:02:00.986Z,1006.22
2018-12-11T04:03:01.011Z,1006.25
2018-12-11T04:04:01.029Z,1006.28
2018-12-11T04:05:01.045Z,1006.27
2018-12-11T04:06:01.063Z,1006.26
2018-12-11T04:07:01.086Z,1006.28
2018-12-11T04:08:01.104Z,1006.27
2018-12-11T04:09:01.121Z,1006.27
2018-12-11T04:10:01.137Z,1006.28
2018-12-11T04:11:01.159Z,1006.27
2018-12-11T04:12:01.180Z,1006.31
2018-12-11T04:13:01.201Z,1006.34
2018-12-11T04:14:01.215Z,1006.35
2018-12-11T04:15:01.282Z,1006.34
2018-12-11T04:16:01.257Z,1006.36
2018-12-11T04:17:01.272Z,1006.37
2018-12-11T04:18:01.290Z,1006.38
2018-12-11T04:19:01.313Z,1006.35
2018-12-11T04:20:01.330Z,1006.41
2018-12-11T04:21:01.353Z,1006.42
2018-12-11T04:22:01.366Z,1006.38
2018-12-11T04:23:01.392Z,1006.43
2018-12-11T04:24:01.455Z,1006.40
2018-12-11T04:25:01.424Z,1006.45
2018-12-11T04:26:01.444Z,1006.50
2018-12-11T04:27:01.463Z,1006.47
2018-12-11T04:28:01.485Z,1006.47
2018-12-11T04:29:01.501Z,1006.52
2018-12-11T04:30:01.523Z,1006.57
2018-12-11T04:31:01.539Z,1006.56
2018-12-11T04:32:01.559Z,1006.60
2018-12-11T04:33:01.577Z,1006.60
2018-12-11T04:34:01.595Z,1006.65
2018-12-11T04:35:01.614Z,1006.63
2018-12-11T04:36:01.636Z,1006.64
2018-12-11T04:37:01.660Z,1006.66
2018-12-11T04:38:01.671Z,1006.68
2018-12-11T04:39:01.693Z,1006.73
2018-12-11T04:40:01.711Z,1006.74
2018-12-11T04:41:01.730Z,1006.75
2018-12-11T04:42:01.749Z,1006.83
2018-12-11T04:43:01.769Z,1006.84
2018-12-11T04:44:01.791Z,1006.82
2018-12-11T04:45:01.813Z,1006.81
2018-12-11T04:46:01.826Z,1006.85
2018-12-11T04:47:01.846Z,1006.84
2018-12-11T04:48:01.863Z,1006.84
2018-12-11T04:49:01.886Z,1006.86
2018-12-11T04:50:01.904Z,1006.87
2018-12-11T04:51:01.924Z,1006.91
2018-12-11T04:52:01.946Z,1006.88
2018-12-11T04:53:01.961Z,1006.92
2018-12-11T04:54:01.984Z,1006.92
2018-12-11T04:55:02.009Z,1006.97
2018-12-11T04:56:02.022Z,1006.96
2018-12-11T04:57:02.043Z,1006.96
2018-12-11T04:58:02.061Z,1007.00
2018-12-11T04:59:02.084Z,1007.06
2018-12-11T05:00:02.100Z,1007.05
2018-12-11T05:01:02.123Z,1007.08
2018-12-11T05:02:02.141Z,1007.12
2018-12-11T05:03:02.160Z,1007.13
2018-12-11T05:04:02.182Z,1007.15
2018-12-11T05:05:02.201Z,1007.19
2018-12-11T05:06:02.220Z,1007.18
2018-12-11T05:07:02.239Z,1007.18
2018-12-11T05:08:02.260Z,1007.18
2018-12-11T05:09:02.283Z,1007.18
2018-12-11T05:10:02.300Z,1007.23
2018-12-11T05:11:02.322Z,1007.25
2018-12-11T05:12:02.351Z,1007.30
2018-12-11T05:13:02.360Z,1007.32
2018-12-11T05:14:02.383Z,1007.35
2018-12-11T05:15:02.403Z,1007.35
2018-12-11T05:16:02.426Z,1007.33
2018-12-11T05:17:02.442Z,1007.32
2018-12-11T05:18:02.465Z,1007.38
2018-12-11T05:19:02.484Z,1007.36
2018-12-11T05:20:02.503Z,1007.39
2018-12-11T05:21:02.527Z,1007.44
2018-12-11T05:22:02.552Z,1007.45
2018-12-11T05:23:02.567Z,1007.49
2018-12-11T05:24:02.588Z,1007.49
2018-12-11T05:25:02.607Z,1007.50
2018-12-11T05:26:02.631Z,1007.51
2018-12-11T05:27:02.651Z,1007.54
2018-12-11T05:28:02.672Z,1007.56
2018-12-11T05:29:02.691Z,1007.57
2018-12-11T05:30:02.712Z,1007.54
2018-12-11T05:31:02.733Z,1007.53
2018-12-11T05:32:02.753Z,1007.54
2018-12-11T05:33:02.773Z,1007.55
2018-12-11T05:34:02.796Z,1007.54
2018-12-11T05:35:02.817Z,1007.59
2018-12-11T05:36:02.837Z,1007.60
2018-12-11T05:37:02.857Z,1007.64
2018-12-11T05:38:02.884Z,1007.69
2018-12-11T05:39:02.902Z,1007.67
2018-12-11T05:40:02.924Z,1007.68
2018-12-11T05:41:02.945Z,1007.66
2018-12-11T05:42:02.966Z,1007.72
2018-12-11T05:43:02.986Z,1007.70
2018-12-11T05:44:03.006Z,1007.77
2018-12-11T05:45:03.026Z,1007.73
2018-12-11T05:46:03.048Z,1007.72
2018-12-11T05:47:03.071Z,1007.77
2018-12-11T05:48:03.123Z,1007.81
2018-12-11T05:49:03.110Z,1007.81
2018-12-11T05:50:03.132Z,1007.81
2018-12-11T05:51:03.162Z,1007.82
2018-12-11T05:52:03.178Z,1007.86
2018-12-11T05:53:03.201Z,1007.87
2018-12-11T05:54:03.220Z,1007.88
2018-12-11T05:55:03.239Z,1007.90
2018-12-11T05:56:03.263Z,1007.90
2018-12-11T05:57:03.281Z,1007.91
2018-12-11T05:58:03.303Z,1007.96
2018-12-11T05:59:03.326Z,1007.96
2018-12-11T06:00:03.346Z,1007.99
2018-12-11T06:01:03.369Z,1007.99
2018-12-11T06:02:03.391Z,1008.01
2018-12-11T06:03:03.410Z,1008.04
2018-12-11T06:04:03.435Z,1008.09
2018-12-11T06:05:03.452Z,1008.05
2018-12-11T06:06:03.479Z,1008.04
2018-12-11T06:07:03.497Z,1008.11
2018-12-11T06:08:03.522Z,1008.08
2018-12-11T06:09:03.540Z,1008.11
2018-12-11T06:10:03.562Z,1008.13
2018-12-11T06:11:03.582Z,1008.17
2018-12-11T06:12:03.605Z,1008.21
2018-12-11T06:13:03.636Z,1008.21
2018-12-11T06:14:03.651Z,1008.27
2018-12-11T06:15:03.674Z,1008.25
2018-12-11T06:16:03.694Z,1008.31
2018-12-11T06:17:03.711Z,1008.28
2018-12-11T06:18:03.733Z,1008.31
2018-12-11T06:19:03.755Z,1008.34
2018-12-11T06:20:03.782Z,1008.39
2018-12-11T06:21:03.798Z,1008.39
2018-12-11T06:22:03.819Z,1008.41
2018-12-11T06:23:03.841Z,1008.47
2018-12-11T06:24:03.862Z,1008.52
2018-12-11T06:25:04.039Z,1008.52
2018-12-11T06:26:03.911Z,1008.55
2018-12-11T06:27:03.928Z,1008.54
2018-12-11T06:28:03.951Z,1008.56
2018-12-11T06:29:03.972Z,1008.58
2018-12-11T06:30:03.996Z,1008.59
2018-12-11T06:31:04.014Z,1008.59
2018-12-11T06:32:04.039Z,1008.61
2018-12-11T06:33:04.058Z,1008.68
2018-12-11T06:34:04.078Z,1008.69
2018-12-11T06:35:04.103Z,1008.68
2018-12-11T06:36:04.122Z,1008.72
2018-12-11T06:37:04.146Z,1008.70
2018-12-11T06:38:04.169Z,1008.74
2018-12-11T06:39:04.188Z,1008.74
2018-12-11T06:40:04.211Z,1008.78
2018-12-11T06:41:04.231Z,1008.76
2018-12-11T06:42:04.253Z,1008.85
2018-12-11T06:43:04.275Z,1008.83
2018-12-11T06:44:04.300Z,1008.81
2018-12-11T06:45:04.319Z,1008.84
2018-12-11T06:46:04.341Z,1008.82
2018-12-11T06:47:04.362Z,1008.85
2018-12-11T06:48:04.383Z,1008.86
2018-12-11T06:49:04.407Z,1008.89
2018-12-11T06:50:04.429Z,1008.90
2018-12-11T06:51:04.449Z,1008.92
2018-12-11T06:52:04.470Z,1008.89
2018-12-11T06:53:04.492Z,1008.89
2018-12-11T06:54:04.517Z,1008.93
2018-12-11T06:55:04.536Z,1008.96
2018-12-11T06:56:04.570Z,1008.98
2018-12-11T06:57:04.582Z,1009.02
2018-12-11T06:58:04.603Z,1008.99
2018-12-11T06:59:04.624Z,1008.99
2018-12-11T07:00:04.648Z,1008.99
2018-12-11T07:01:04.671Z,1009.06
2018-12-11T07:02:04.690Z,1009.07
2018-12-11T07:03:04.710Z,1009.08
2018-12-11T07:04:04.738Z,1009.11
2018-12-11T07:05:04.762Z,1009.11
2018-12-11T07:06:04.782Z,1009.11
2018-12-11T07:07:04.802Z,1009.13
2018-12-11T07:08:04.835Z,1009.14
2018-12-11T07:09:04.847Z,1009.14
2018-12-11T07:10:04.867Z,1009.16
2018-12-11T07:11:04.891Z,1009.18
2018-12-11T07:12:04.910Z,1009.18
2018-12-11T07:13:04.932Z,1009.16
2018-12-11T07:14:04.954Z,1009.18
2018-12-11T07:15:04.977Z,1009.21
2018-12-11T07:16:05.000Z,1009.22
2018-12-11T07:17:05.020Z,1009.29
2018-12-11T07:18:05.043Z,1009.28
2018-12-11T07:19:05.067Z,1009.33
2018-12-11T07:20:05.087Z,1009.28
2018-12-11T07:21:05.108Z,1009.38
2018-12-11T07:22:05.137Z,1009.36
2018-12-11T07:23:05.153Z,1009.45
2018-12-11T07:24:05.178Z,1009.43
2018-12-11T07:25:05.199Z,1009.45
2018-12-11T07:26:05.220Z,1009.48
2018-12-11T07:27:05.246Z,1009.51
2018-12-11T07:28:05.264Z,1009.48
2018-12-11T07:29:05.288Z,1009.55
2018-12-11T07:30:05.308Z,1009.52
2018-12-11T07:31:05.334Z,1009.59
2018-12-11T07:32:05.356Z,1009.57
2018-12-11T07:33:05.376Z,1009.59
2018-12-11T07:34:05.397Z,1009.63
2018-12-11T07:35:05.419Z,1009.62
2018-12-11T07:36:05.443Z,1009.63
2018-12-11T07:37:05.464Z,1009.67
2018-12-11T07:38:05.488Z,1009.66
2018-12-11T07:39:05.511Z,1009.64
2018-12-11T07:40:05.534Z,1009.69
2018-12-11T07:41:05.553Z,1009.67
2018-12-11T07:42:05.578Z,1009.72
2018-12-11T07:43:05.598Z,1009.71
2018-12-11T07:44:05.625Z,1009.74
2018-12-11T07:45:05.643Z,1009.76
2018-12-11T07:46:05.666Z,1009.80
2018-12-11T07:47:05.693Z,1009.82
2018-12-11T07:48:05.712Z,1009.82
2018-12-11T07:49:05.736Z,1009.82
2018-12-11T07:50:05.755Z,1009.84
2018-12-11T07:51:05.775Z,1009.81
2018-12-11T07:52:05.806Z,1009.80
2018-12-11T07:53:06.452Z,1009.82
2018-12-11T07:54:05.846Z,1009.85
2018-12-11T07:55:05.869Z,1009.86
2018-12-11T07:56:05.891Z,1009.94
2018-12-11T07:57:05.913Z,1009.92
2018-12-11T07:58:05.935Z,1009.92
2018-12-11T07:59:05.961Z,1009.91
2018-12-11T08:00:05.983Z,1009.93
2018-12-11T08:01:06.004Z,1009.93
2018-12-11T08:02:06.026Z,1009.94
2018-12-11T08:03:06.049Z,1009.92
2018-12-11T08:04:06.075Z,1009.95
2018-12-11T08:05:06.094Z,1009.97
2018-12-11T08:06:06.119Z,1009.96
2018-12-11T08:07:06.142Z,1009.98
2018-12-11T08:08:06.163Z,1009.97
2018-12-11T08:09:06.185Z,1010.02
2018-12-11T08:10:06.208Z,1010.03
2018-12-11T08:11:06.237Z,1010.02
2018-12-11T08:12:08.431Z,1010.08
2018-12-11T08:13:06.277Z,1010.13
2018-12-11T08:14:06.299Z,1010.11
2018-12-11T08:15:06.320Z,1010.16
2018-12-11T08:16:06.345Z,1010.14
2018-12-11T08:17:06.366Z,1010.20
2018-12-11T08:18:06.391Z,1010.17
2018-12-11T08:19:06.414Z,1010.15
2018-12-11T08:20:06.435Z,1010.18
2018-12-11T08:21:06.457Z,1010.16
2018-12-11T08:22:06.481Z,1010.20
2018-12-11T08:23:06.506Z,1010.20
2018-12-11T08:24:06.532Z,1010.25
2018-12-11T08:25:06.549Z,1010.23
2018-12-11T08:26:06.576Z,1010.24
2018-12-11T08:27:06.594Z,1010.31
2018-12-11T08:28:06.620Z,1010.28
2018-12-11T08:29:06.642Z,1010.31
2018-12-11T08:30:06.666Z,1010.31
2018-12-11T08:31:06.686Z,1010.33
2018-12-11T08:32:06.712Z,1010.34
2018-12-11T08:33:06.738Z,1010.36
2018-12-11T08:34:06.756Z,1010.35
2018-12-11T08:35:06.779Z,1010.40
2018-12-11T08:36:06.800Z,1010.44
2018-12-11T08:37:06.825Z,1010.46
2018-12-11T08:38:06.848Z,1010.49
2018-12-11T08:39:06.870Z,1010.48
2018-12-11T08:40:06.898Z,1010.52
2018-12-11T08:41:06.917Z,1010.51
2018-12-11T08:42:06.943Z,1010.54
2018-12-11T08:43:06.966Z,1010.53
2018-12-11T08:44:06.985Z,1010.57
2018-12-11T08:45:07.010Z,1010.56
2018-12-11T08:46:07.055Z,1010.57
2018-12-11T08:47:07.057Z,1010.63
2018-12-11T08:48:07.080Z,1010.69
2018-12-11T08:49:07.105Z,1010.72
2018-12-11T08:50:07.125Z,1010.71
2018-12-11T08:51:07.149Z,1010.71
2018-12-11T08:52:07.172Z,1010.76
2018-12-11T08:53:07.195Z,1010.74
2018-12-11T08:54:07.222Z,1010.73
2018-12-11T08:55:07.245Z,1010.74
2018-12-11T08:56:07.268Z,1010.79
2018-12-11T08:57:07.289Z,1010.76
2018-12-11T08:58:07.311Z,1010.81
2018-12-11T08:59:07.338Z,1010.79
2018-12-11T09:00:07.358Z,1010.81
2018-12-11T09:01:07.381Z,1010.82
2018-12-11T09:02:07.406Z,1010.79
2018-12-11T09:03:07.433Z,1010.81
2018-12-11T09:04:07.452Z,1010.84
2018-12-11T09:05:07.478Z,1010.80
2018-12-11T09:06:07.500Z,1010.84
2018-12-11T09:07:07.753Z,1010.88
2018-12-11T09:08:07.547Z,1010.87
2018-12-11T09:09:07.569Z,1010.86
2018-12-11T09:10:07.594Z,1010.86
2018-12-11T09:11:07.620Z,1010.82
2018-12-11T09:12:07.641Z,1010.86
2018-12-11T09:13:07.663Z,1010.84
2018-12-11T09:14:07.693Z,1010.83
2018-12-11T09:15:07.710Z,1010.84
2018-12-11T09:16:07.735Z,1010.87
2018-12-11T09:17:10.185Z,1010.88
2018-12-11T09:18:07.782Z,1010.92
2018-12-11T09:19:07.806Z,1010.92
2018-12-11T09:20:07.829Z,1010.95
2018-12-11T09:21:07.853Z,1010.94
2018-12-11T09:22:07.877Z,1010.96
2018-12-11T09:23:07.900Z,1010.99
2018-12-11T09:24:07.925Z,1011.05
2018-12-11T09:25:07.948Z,1011.06
2018-12-11T09:26:07.975Z,1011.08
2018-12-11T09:27:07.997Z,1011.10
2018-12-11T09:28:11.037Z,1011.10
2018-12-11T09:29:08.045Z,1011.09
2018-12-11T09:30:08.071Z,1011.10
2018-12-11T09:31:08.094Z,1011.15
2018-12-11T09:32:08.115Z,1011.14
2018-12-11T09:33:08.139Z,1011.12
2018-12-11T09:34:08.161Z,1011.15
2018-12-11T09:35:08.186Z,1011.14
2018-12-11T09:36:08.216Z,1011.17
2018-12-11T09:37:08.240Z,1011.16
2018-12-11T09:38:08.262Z,1011.21
2018-12-11T09:39:08.284Z,1011.21
2018-12-11T09:40:08.320Z,1011.23
2018-12-11T09:41:08.328Z,1011.24
2018-12-11T09:42:08.355Z,1011.26
2018-12-11T09:43:08.378Z,1011.29
2018-12-11T09:44:08.403Z,1011.29
2018-12-11T09:45:08.426Z,1011.35
2018-12-11T09:46:08.448Z,1011.37
2018-12-11T09:47:08.475Z,1011.38
2018-12-11T09:48:08.499Z,1011.41
2018-12-11T09:49:08.523Z,1011.41
2018-12-11T09:50:08.552Z,1011.42
2018-12-11T09:51:08.573Z,1011.42
2018-12-11T09:52:08.598Z,1011.43
2018-12-11T09:53:08.621Z,1011.42
2018-12-11T09:54:08.647Z,1011.43
2018-12-11T09:55:08.669Z,1011.43
2018-12-11T09:56:08.692Z,1011.42
2018-12-11T09:57:08.719Z,1011.44
2018-12-11T09:58:08.742Z,1011.44
2018-12-11T09:59:08.767Z,1011.43
2018-12-11T10:00:08.788Z,1011.44
2018-12-11T10:01:08.812Z,1011.47
2018-12-11T10:02:08.838Z,1011.48
2018-12-11T10:03:08.863Z,1011.51
2018-12-11T10:04:08.886Z,1011.48
2018-12-11T10:05:08.911Z,1011.49
2018-12-11T10:06:08.933Z,1011.48
2018-12-11T10:07:08.958Z,1011.51
2018-12-11T10:08:08.987Z,1011.48
2018-12-11T10:09:09.006Z,1011.50
2018-12-11T10:10:09.034Z,1011.52
2018-12-11T10:11:09.055Z,1011.52
2018-12-11T10:12:09.082Z,1011.53
2018-12-11T10:13:09.107Z,1011.52
2018-12-11T10:14:09.128Z,1011.54
2018-12-11T10:15:09.157Z,1011.51
2018-12-11T10:16:09.180Z,1011.55
2018-12-11T10:17:09.203Z,1011.55
2018-12-11T10:18:09.231Z,1011.54
2018-12-11T10:19:09.254Z,1011.56
2018-12-11T10:20:09.279Z,1011.55
2018-12-11T10:21:09.301Z,1011.58
2018-12-11T10:22:09.328Z,1011.56
2018-12-11T10:23:09.349Z,1011.59
2018-12-11T10:24:09.376Z,1011.59
2018-12-11T10:25:09.402Z,1011.60
2018-12-11T10:26:09.426Z,1011.63
2018-12-11T10:27:09.449Z,1011.67
2018-12-11T10:28:09.476Z,1011.69
2018-12-11T10:29:09.496Z,1011.72
2018-12-11T10:30:09.524Z,1011.68
2018-12-11T10:31:09.548Z,1011.70
2018-12-11T10:32:09.571Z,1011.73
2018-12-11T10:33:09.595Z,1011.75
2018-12-11T10:34:09.625Z,1011.74
2018-12-11T10:35:09.646Z,1011.78
2018-12-11T10:36:09.670Z,1011.77
2018-12-11T10:37:09.697Z,1011.77
2018-12-11T10:38:09.718Z,1011.79
2018-12-11T10:39:09.743Z,1011.77
2018-12-11T10:40:09.771Z,1011.80
2018-12-11T10:41:09.792Z,1011.78
2018-12-11T10:42:09.821Z,1011.80
2018-12-11T10:43:09.844Z,1011.85
2018-12-11T10:44:09.866Z,1011.82
2018-12-11T10:45:09.891Z,1011.87
2018-12-11T10:46:09.915Z,1011.83
2018-12-11T10:47:09.941Z,1011.89
2018-12-11T10:48:09.968Z,1011.92
2018-12-11T10:49:09.989Z,1011.93
2018-12-11T10:50:10.015Z,1011.95
2018-12-11T10:51:10.039Z,1012.00
2018-12-11T10:52:10.062Z,1011.98
2018-12-11T10:53:10.089Z,1012.01
2018-12-11T10:54:10.157Z,1012.01
2018-12-11T10:55:10.137Z,1012.05
2018-12-11T10:56:10.161Z,1012.08
2018-12-11T10:57:10.184Z,1012.06
2018-12-11T10:58:10.215Z,1012.04
2018-12-11T10:59:10.401Z,1012.09
2018-12-11T11:00:10.259Z,1012.11
2018-12-11T11:01:10.288Z,1012.11
2018-12-11T11:02:10.312Z,1012.15
2018-12-11T11:03:10.332Z,1012.18
2018-12-11T11:04:10.356Z,1012.17
2018-12-11T11:05:10.380Z,1012.16
2018-12-11T11:06:10.411Z,1012.18
2018-12-11T11:07:10.430Z,1012.15
2018-12-11T11:08:10.455Z,1012.18
2018-12-11T11:09:10.480Z,1012.22
2018-12-11T11:10:10.533Z,1012.24
2018-12-11T11:11:10.530Z,1012.25
2018-12-11T11:12:10.558Z,1012.27
2018-12-11T11:13:10.577Z,1012.28
2018-12-11T11:14:10.603Z,1012.29
2018-12-11T11:15:10.630Z,1012.32
2018-12-11T11:16:10.656Z,1012.31
2018-12-11T11:17:10.680Z,1012.32
2018-12-11T11:18:10.707Z,1012.32
2018-12-11T11:19:10.728Z,1012.34
2018-12-11T11:20:10.752Z,1012.33
2018-12-11T11:21:10.782Z,1012.37
2018-12-11T11:22:10.805Z,1012.36
2018-12-11T11:23:10.828Z,1012.34
2018-12-11T11:24:10.858Z,1012.35
2018-12-11T11:25:10.876Z,1012.36
2018-12-11T11:26:10.903Z,1012.37
2018-12-11T11:27:10.927Z,1012.42
2018-12-11T11:28:10.953Z,1012.43
2018-12-11T11:29:10.979Z,1012.41
2018-12-11T11:30:11.004Z,1012.42
2018-12-11T11:31:11.027Z,1012.43
2018-12-11T11:32:11.059Z,1012.42
2018-12-11T11:33:11.077Z,1012.44
2018-12-11T11:34:11.103Z,1012.43
2018-12-11T11:35:11.128Z,1012.45
2018-12-11T11:36:11.152Z,1012.46
2018-12-11T11:37:11.178Z,1012.48
2018-12-11T11:38:11.203Z,1012.48
2018-12-11T11:39:11.226Z,1012.52
2018-12-11T11:40:11.251Z,1012.53
2018-12-11T11:41:11.276Z,1012.58
2018-12-11T11:42:11.307Z,1012.57
2018-12-11T11:43:11.325Z,1012.55
2018-12-11T11:44:11.361Z,1012.56
2018-12-11T11:45:11.379Z,1012.60
2018-12-11T11:46:11.401Z,1012.62
2018-12-11T11:47:11.426Z,1012.64
2018-12-11T11:48:11.450Z,1012.66
2018-12-11T11:49:11.475Z,1012.67
2018-12-11T11:50:11.502Z,1012.70
2018-12-11T11:51:11.525Z,1012.69
2018-12-11T11:52:11.552Z,1012.77
2018-12-11T11:53:11.575Z,1012.78
2018-12-11T11:54:11.601Z,1012.82
2018-12-11T11:55:11.634Z,1012.79
2018-12-11T11:56:11.651Z,1012.77
2018-12-11T11:57:11.719Z,1012.81
2018-12-11T11:58:11.699Z,1012.82
2018-12-11T11:59:11.723Z,1012.84
2018-12-11T12:00:11.748Z,1012.83
2018-12-11T12:01:11.774Z,1012.86
2018-12-11T12:02:11.797Z,1012.86
2018-12-11T12:03:11.822Z,1012.87
2018-12-11T12:04:11.849Z,1012.88
2018-12-11T12:05:11.874Z,1012.89
2018-12-11T12:06:11.897Z,1012.86